Erath, Louisiana
Current Conditions -  °F | °C
As of 8:55 PM on Monday 22 Dec 2014 (Local Time) from KIYA Reporting Station
Haze Haze  
Wind Chill: 64°   Ceiling: 200
Heat Index: 64°   Visibility: 1mi
Dew Point: 64°   Wind: 7mph
Humidity: 100%   Direction: 170°S
Pressure: 29.7"   Gusts: NA
Location:  29.96°N, 92.04°W
Report Text: KIYA 230255Z AUTO 17006KT 1SM BR OVC002 18/18 A2970 RMK AO2 T01750175 TSNO
Loading
Personal Weather Stations






























Interactive Weather Map New forecast layout! Learn more

10-Day Weather Forecast

Advertisements
Track Severe Weather on mobile